createdAt,value
2018-03-26T00:01:05.244Z,95003
2018-03-26T00:03:34.262Z,95005
2018-03-26T00:06:03.325Z,95002
2018-03-26T00:08:32.357Z,95007
2018-03-26T00:11:02.167Z,95006
2018-03-26T00:13:31.344Z,95002
2018-03-26T00:16:00.699Z,95002
2018-03-26T00:18:30.292Z,95004
2018-03-26T00:20:59.898Z,95007
2018-03-26T00:23:29.685Z,94737
2018-03-26T00:25:59.028Z,95001
2018-03-26T00:28:28.468Z,95001
2018-03-26T00:30:58.046Z,94999
2018-03-26T00:33:28.302Z,94999
2018-03-26T00:35:57.463Z,95007
2018-03-26T00:38:26.472Z,95012
2018-03-26T00:40:55.522Z,95008
2018-03-26T00:43:25.292Z,95018
2018-03-26T00:45:54.375Z,95020
2018-03-26T00:48:23.389Z,95016
2018-03-26T00:50:52.478Z,95022
2018-03-26T00:56:23.421Z,95020
2018-03-26T00:58:52.431Z,95015
2018-03-26T01:01:21.492Z,95017
2018-03-26T01:03:50.499Z,95012
2018-03-26T01:06:19.553Z,95017
2018-03-26T01:08:48.609Z,95017
2018-03-26T01:11:17.696Z,95022
2018-03-26T01:13:47.210Z,95002
2018-03-26T01:16:17.013Z,95015
2018-03-26T01:18:46.072Z,95021
2018-03-26T01:21:15.121Z,95020
2018-03-26T01:23:44.991Z,95020
2018-03-26T01:26:14.068Z,95010
2018-03-26T01:28:43.079Z,95013
2018-03-26T01:31:12.128Z,95009
2018-03-26T01:33:41.170Z,95015
2018-03-26T01:36:10.199Z,95004
2018-03-26T01:38:40.020Z,94998
2018-03-26T01:41:09.050Z,95014
2018-03-26T01:43:38.091Z,95006
2018-03-26T01:46:07.101Z,95008
2018-03-26T01:48:36.116Z,95017
2018-03-26T01:51:05.276Z,95011
2018-03-26T01:53:35.058Z,95019
2018-03-26T01:56:04.061Z,95025
2018-03-26T01:58:33.878Z,95018
2018-03-26T02:01:02.898Z,95025
2018-03-26T02:03:31.942Z,95019
2018-03-26T02:06:00.963Z,95022
2018-03-26T02:08:30.009Z,95011
2018-03-26T02:10:59.023Z,95022
2018-03-26T02:13:28.075Z,95032
2018-03-26T02:15:57.098Z,95020
2018-03-26T02:18:26.151Z,95021
2018-03-26T02:20:55.186Z,95016
2018-03-26T02:23:24.251Z,95016
2018-03-26T02:25:53.276Z,95026
2018-03-26T02:28:22.341Z,95023
2018-03-26T02:30:51.367Z,95023
2018-03-26T02:33:20.441Z,95020
2018-03-26T02:35:49.449Z,95019
2018-03-26T02:38:18.493Z,95017
2018-03-26T02:40:47.512Z,95025
2018-03-26T02:43:16.663Z,95018
2018-03-26T02:45:45.685Z,95022
2018-03-26T02:48:14.699Z,95033
2018-03-26T02:50:43.780Z,95034
2018-03-26T02:53:12.783Z,95041
2018-03-26T02:55:41.805Z,95038
2018-03-26T02:58:10.845Z,95040
2018-03-26T03:00:39.894Z,95034
2018-03-26T03:03:08.908Z,95039
2018-03-26T03:05:37.971Z,95041
2018-03-26T03:08:06.978Z,95048
2018-03-26T03:10:36.854Z,95044
2018-03-26T03:13:05.825Z,95054
2018-03-26T03:15:34.865Z,95057
2018-03-26T03:18:03.891Z,95045
2018-03-26T03:20:32.933Z,95059
2018-03-26T03:23:01.960Z,95054
2018-03-26T03:25:31.770Z,95061
2018-03-26T03:28:00.788Z,95068
2018-03-26T03:30:29.847Z,95061
2018-03-26T03:32:59.626Z,95070
2018-03-26T03:35:28.717Z,95071
2018-03-26T03:37:57.727Z,95063
2018-03-26T03:40:26.819Z,95073
2018-03-26T03:42:55.844Z,95085
2018-03-26T03:45:24.849Z,95075
2018-03-26T03:47:53.906Z,95072
2018-03-26T03:50:22.934Z,95082
2018-03-26T03:52:51.974Z,95088
2018-03-26T03:55:21.034Z,95088
2018-03-26T03:57:50.046Z,95090
2018-03-26T04:00:19.113Z,95097
2018-03-26T04:02:48.130Z,95085
2018-03-26T04:05:17.194Z,95095
2018-03-26T04:07:46.211Z,95094
2018-03-26T04:10:15.221Z,95098
2018-03-26T04:12:44.312Z,95097
2018-03-26T04:15:13.332Z,95090
2018-03-26T04:17:42.340Z,95097
2018-03-26T04:20:11.391Z,95092
2018-03-26T04:22:40.521Z,95092
2018-03-26T04:25:09.569Z,95087
2018-03-26T04:27:38.616Z,95095
2018-03-26T04:30:08.394Z,95097
2018-03-26T04:32:37.448Z,95096
2018-03-26T04:35:06.504Z,95092
2018-03-26T04:37:36.297Z,95100
2018-03-26T04:40:05.361Z,95099
2018-03-26T04:42:34.391Z,95099
2018-03-26T04:45:03.446Z,95098
2018-03-26T04:47:32.454Z,95093
2018-03-26T04:50:01.507Z,95098
2018-03-26T04:52:30.539Z,95095
2018-03-26T04:54:59.618Z,95105
2018-03-26T04:57:28.625Z,95099
2018-03-26T04:59:57.678Z,95090
2018-03-26T05:02:26.695Z,95091
2018-03-26T05:04:55.755Z,95094
2018-03-26T05:07:24.760Z,95093
2018-03-26T05:09:53.821Z,95105
2018-03-26T05:12:23.607Z,95099
2018-03-26T05:14:52.626Z,95093
2018-03-26T05:17:22.456Z,95093
2018-03-26T05:19:51.473Z,95091
2018-03-26T05:22:20.481Z,95090
2018-03-26T05:24:49.650Z,95103
2018-03-26T05:27:18.661Z,95098
2018-03-26T05:29:47.667Z,95102
2018-03-26T05:32:16.722Z,95106
2018-03-26T05:34:45.761Z,95112
2018-03-26T05:37:14.774Z,95106
2018-03-26T05:39:43.825Z,95110
2018-03-26T05:42:12.846Z,95109
2018-03-26T05:44:41.926Z,95113
2018-03-26T05:47:10.945Z,95122
2018-03-26T05:49:39.967Z,95129
2018-03-26T05:52:09.030Z,95129
2018-03-26T05:54:38.090Z,95129
2018-03-26T05:57:07.097Z,95131
2018-03-26T05:59:36.110Z,95131
2018-03-26T06:02:05.153Z,95129
2018-03-26T06:04:34.187Z,95139
2018-03-26T06:07:03.249Z,95134
2018-03-26T06:09:32.266Z,95135
2018-03-26T06:12:01.298Z,95146
2018-03-26T06:14:30.340Z,95137
2018-03-26T06:17:11.600Z,95142
2018-03-26T06:19:40.666Z,95131
2018-03-26T06:22:09.682Z,95131
2018-03-26T06:24:38.687Z,95138
2018-03-26T06:27:07.762Z,95145
2018-03-26T06:29:36.768Z,95150
2018-03-26T06:32:05.787Z,95152
2018-03-26T06:34:34.830Z,95156
2018-03-26T06:37:03.870Z,95148
2018-03-26T06:39:32.881Z,95154
2018-03-26T06:42:02.684Z,95149
2018-03-26T06:44:31.715Z,95153
2018-03-26T06:47:00.761Z,95155
2018-03-26T06:49:29.810Z,95163
2018-03-26T06:51:58.858Z,95168
2018-03-26T06:54:27.881Z,95175
2018-03-26T06:56:56.923Z,95164
2018-03-26T06:59:25.938Z,95178
2018-03-26T07:01:54.994Z,95175
2018-03-26T07:04:24.006Z,95173
2018-03-26T07:06:54.129Z,95175
2018-03-26T07:09:23.950Z,95166
2018-03-26T07:11:53.080Z,95178
2018-03-26T07:14:22.098Z,95176
2018-03-26T07:16:51.110Z,95180
2018-03-26T07:19:20.178Z,95177
2018-03-26T07:21:49.202Z,95182
2018-03-26T07:24:18.251Z,95180
2018-03-26T07:26:47.275Z,95176
2018-03-26T07:29:16.386Z,95186
2018-03-26T07:31:45.487Z,95179
2018-03-26T07:34:14.521Z,95184
2018-03-26T07:36:43.597Z,95193
2018-03-26T07:39:13.423Z,95197
2018-03-26T07:41:42.434Z,95193
2018-03-26T07:44:11.526Z,95186
2018-03-26T07:46:40.541Z,95214
2018-03-26T07:49:09.553Z,95195
2018-03-26T07:51:38.593Z,95201
2018-03-26T07:54:07.642Z,95201
2018-03-26T07:56:36.670Z,95201
2018-03-26T07:59:06.477Z,95201
2018-03-26T08:01:35.497Z,95198
2018-03-26T08:04:04.542Z,95207
2018-03-26T08:06:33.571Z,95212
2018-03-26T08:09:02.642Z,95208
2018-03-26T08:11:32.428Z,95213
2018-03-26T08:14:01.498Z,95220
2018-03-26T08:16:30.510Z,95222
2018-03-26T08:18:59.570Z,95216
2018-03-26T08:21:28.584Z,95221
2018-03-26T08:23:57.634Z,95212
2018-03-26T08:26:26.662Z,95218
2018-03-26T08:28:55.770Z,95219
2018-03-26T08:31:24.803Z,95217
2018-03-26T08:33:54.688Z,95220
2018-03-26T08:36:23.733Z,95224
2018-03-26T08:38:52.750Z,95230
2018-03-26T08:41:21.836Z,95223
2018-03-26T08:43:50.853Z,95119
2018-03-26T08:46:19.895Z,95237
2018-03-26T08:48:48.955Z,95234
2018-03-26T08:51:17.966Z,95241
2018-03-26T08:53:47.782Z,95239
2018-03-26T08:56:17.598Z,95236
2018-03-26T08:58:46.624Z,95243
2018-03-26T09:01:15.675Z,95243
2018-03-26T09:03:44.703Z,95241
2018-03-26T09:06:13.883Z,95252
2018-03-26T09:08:43.021Z,95244
2018-03-26T09:11:12.229Z,95255
2018-03-26T09:13:41.338Z,95254
2018-03-26T09:16:10.387Z,95261
2018-03-26T09:18:39.479Z,95259
2018-03-26T09:21:08.510Z,95260
2018-03-26T09:23:37.565Z,95263
2018-03-26T09:26:07.479Z,95265
2018-03-26T09:28:36.494Z,95272
2018-03-26T09:31:05.557Z,95271
2018-03-26T09:33:34.604Z,95269
2018-03-26T09:36:03.676Z,95279
2018-03-26T09:38:32.703Z,95271
2018-03-26T09:41:01.768Z,95274
2018-03-26T09:43:30.798Z,95281
2018-03-26T09:45:59.863Z,95286
2018-03-26T09:48:28.941Z,95294
2018-03-26T09:50:59.854Z,95300
2018-03-26T09:53:28.953Z,95297
2018-03-26T09:55:57.971Z,95298
2018-03-26T09:58:26.994Z,95309
2018-03-26T10:01:02.767Z,95294
2018-03-26T10:03:31.785Z,95299
2018-03-26T10:06:00.840Z,95293
2018-03-26T10:08:33.691Z,95302
2018-03-26T10:11:03.201Z,95297
2018-03-26T10:13:33.443Z,95316
2018-03-26T10:16:03.605Z,95306
2018-03-26T10:18:32.664Z,95310
2018-03-26T10:21:01.742Z,95318
2018-03-26T10:23:30.816Z,95311
2018-03-26T10:26:00.562Z,95311
2018-03-26T10:28:30.397Z,95315
2018-03-26T10:30:59.444Z,95311
2018-03-26T10:33:28.512Z,95316
2018-03-26T10:35:57.543Z,95315
2018-03-26T10:38:27.426Z,95323
2018-03-26T10:40:56.444Z,95311
2018-03-26T10:43:25.562Z,95311
2018-03-26T10:45:54.619Z,95316
2018-03-26T10:48:23.660Z,95315
2018-03-26T10:50:52.762Z,95313
2018-03-26T10:53:21.810Z,95317
2018-03-26T10:55:50.833Z,95317
2018-03-26T10:58:19.894Z,95325
2018-03-26T11:00:48.926Z,95318
2018-03-26T11:03:17.983Z,95308
2018-03-26T11:05:47.005Z,95315
2018-03-26T11:08:16.102Z,95319
2018-03-26T11:10:45.133Z,95322
2018-03-26T11:13:14.163Z,95317
2018-03-26T11:15:43.330Z,95323
2018-03-26T11:18:12.387Z,95314
2018-03-26T11:20:41.423Z,95313
2018-03-26T11:23:10.509Z,95316
2018-03-26T11:25:39.534Z,95315
2018-03-26T11:28:08.599Z,95313
2018-03-26T11:30:37.692Z,95324
2018-03-26T11:33:06.726Z,95312
2018-03-26T11:35:36.571Z,95319
2018-03-26T11:38:05.623Z,95314
2018-03-26T11:40:34.729Z,95314
2018-03-26T11:43:04.577Z,95313
2018-03-26T11:45:33.611Z,95320
2018-03-26T11:48:02.706Z,95316
2018-03-26T11:50:31.735Z,95315
2018-03-26T11:53:00.780Z,95323
2018-03-26T11:55:29.858Z,95322
2018-03-26T11:57:58.904Z,95323
2018-03-26T12:00:28.702Z,95321
2018-03-26T12:02:57.777Z,95330
2018-03-26T12:05:26.842Z,95324
2018-03-26T12:07:56.017Z,95333
2018-03-26T12:10:25.211Z,95324
2018-03-26T12:12:54.272Z,95326
2018-03-26T12:15:23.301Z,95330
2018-03-26T12:17:52.365Z,95337
2018-03-26T12:20:39.071Z,95338
2018-03-26T12:23:25.828Z,95338
2018-03-26T12:25:54.951Z,95347
2018-03-26T12:31:35.294Z,95343
2018-03-26T12:34:22.366Z,95351
2018-03-26T12:36:51.395Z,95350
2018-03-26T12:39:20.457Z,95341
2018-03-26T12:41:49.492Z,95347
2018-03-26T12:44:36.295Z,95340
2018-03-26T12:47:05.320Z,95354
2018-03-26T12:49:34.412Z,95348
2018-03-26T12:52:21.041Z,95356
2018-03-26T12:54:50.105Z,95368
2018-03-26T12:57:36.917Z,95356
2018-03-26T13:00:05.985Z,95357
2018-03-26T13:02:35.042Z,95361
2018-03-26T13:05:04.071Z,95353
2018-03-26T13:07:38.959Z,95355
2018-03-26T13:10:08.006Z,95354
2018-03-26T13:12:37.035Z,95351
2018-03-26T13:15:06.117Z,95356
2018-03-26T13:17:35.157Z,95360
2018-03-26T13:20:04.191Z,95357
2018-03-26T13:22:33.293Z,95361
2018-03-26T13:25:02.328Z,95360
2018-03-26T13:27:31.345Z,95368
2018-03-26T13:30:00.402Z,95358
2018-03-26T13:32:29.435Z,95371
2018-03-26T13:34:59.267Z,95367
2018-03-26T13:37:28.294Z,95361
2018-03-26T13:39:57.362Z,95380
2018-03-26T13:42:26.391Z,95363
2018-03-26T13:44:55.458Z,95370
2018-03-26T13:47:24.494Z,95370
2018-03-26T13:49:53.527Z,95363
2018-03-26T13:52:22.614Z,95366
2018-03-26T13:54:51.684Z,95369
2018-03-26T13:57:21.476Z,95365
2018-03-26T13:59:50.551Z,95370
2018-03-26T14:02:19.589Z,95369
2018-03-26T14:04:48.655Z,95371
2018-03-26T14:07:17.686Z,95375
2018-03-26T14:10:04.562Z,95376
2018-03-26T14:12:51.688Z,95372
2018-03-26T14:15:38.679Z,95368
2018-03-26T14:18:07.852Z,95365
2018-03-26T14:20:36.882Z,95356
2018-03-26T14:23:06.162Z,95369
2018-03-26T14:25:35.238Z,95361
2018-03-26T14:28:04.277Z,95360
2018-03-26T14:30:34.132Z,95370
2018-03-26T14:33:03.161Z,95372
2018-03-26T14:35:47.107Z,95375
2018-03-26T14:38:16.146Z,95388
2018-03-26T14:40:45.241Z,95382
2018-03-26T14:43:15.079Z,95390
2018-03-26T14:45:45.201Z,95393
2018-03-26T14:48:14.312Z,95407
2018-03-26T14:50:43.441Z,95412
2018-03-26T14:53:13.310Z,95421
2018-03-26T14:55:42.362Z,95413
2018-03-26T14:58:11.748Z,95416
2018-03-26T15:00:42.763Z,95416
2018-03-26T15:03:12.267Z,95426
2018-03-26T15:05:42.674Z,95432
2018-03-26T15:08:11.780Z,95421
2018-03-26T15:10:41.404Z,95419
2018-03-26T15:13:10.732Z,95416
2018-03-26T15:15:41.683Z,95426
2018-03-26T15:18:10.770Z,95431
2018-03-26T15:20:39.815Z,95428
2018-03-26T15:23:08.872Z,95428
2018-03-26T15:25:37.963Z,95424
2018-03-26T15:28:09.208Z,95429
2018-03-26T15:30:38.282Z,95432
2018-03-26T15:33:08.098Z,95431
2018-03-26T15:35:37.198Z,95430
2018-03-26T15:38:06.258Z,95438
2018-03-26T15:40:35.377Z,95438
2018-03-26T15:43:04.454Z,95437
2018-03-26T15:45:33.504Z,95446
2018-03-26T15:48:02.594Z,95449
2018-03-26T15:50:31.697Z,95471
2018-03-26T15:53:00.804Z,95466
2018-03-26T15:55:31.675Z,95459
2018-03-26T15:58:00.915Z,95465
2018-03-26T16:00:30.008Z,95472
2018-03-26T16:05:57.925Z,95477
2018-03-26T16:08:27.110Z,95482
2018-03-26T16:10:58.288Z,95466
2018-03-26T16:13:27.484Z,95477
2018-03-26T16:15:57.420Z,95481
2018-03-26T16:18:26.565Z,95480
2018-03-26T16:20:55.583Z,95488
2018-03-26T16:23:24.622Z,95488
2018-03-26T16:25:54.743Z,95490
2018-03-26T16:28:24.012Z,95493
2018-03-26T16:30:53.102Z,95500
2018-03-26T16:33:22.161Z,95513
2018-03-26T16:35:51.639Z,95508
2018-03-26T16:38:20.685Z,95512
2018-03-26T16:40:49.730Z,95512
2018-03-26T16:43:18.815Z,95518
2018-03-26T16:45:47.902Z,95515
2018-03-26T16:48:16.924Z,95507
2018-03-26T16:50:45.940Z,95499
2018-03-26T16:53:15.053Z,95513
2018-03-26T16:55:44.071Z,95513
2018-03-26T16:58:13.126Z,95512
2018-03-26T17:00:42.149Z,95512
2018-03-26T17:03:11.215Z,95520
2018-03-26T17:05:40.368Z,95516
2018-03-26T17:08:09.481Z,95508
2018-03-26T17:10:38.503Z,95527
2018-03-26T17:13:07.537Z,95517
2018-03-26T17:15:36.617Z,95518
2018-03-26T17:18:06.531Z,95526
2018-03-26T17:20:36.367Z,95514
2018-03-26T17:23:05.399Z,95520
2018-03-26T17:25:34.429Z,95523
2018-03-26T17:28:03.651Z,95522
2018-03-26T17:30:32.664Z,95517
2018-03-26T17:33:01.734Z,95525
2018-03-26T17:35:30.812Z,95521
2018-03-26T17:37:59.839Z,95518
2018-03-26T17:40:28.942Z,95526
2018-03-26T17:42:58.185Z,95521
2018-03-26T17:45:30.101Z,95513
2018-03-26T17:47:59.357Z,95529
2018-03-26T17:50:34.438Z,95532
2018-03-26T17:53:05.406Z,95533
2018-03-26T17:55:34.581Z,95533
2018-03-26T17:58:04.585Z,95531
2018-03-26T18:00:34.748Z,95532
2018-03-26T18:03:07.662Z,95537
2018-03-26T18:05:50.314Z,95537
2018-03-26T18:08:28.495Z,95536
2018-03-26T18:11:00.579Z,95542
2018-03-26T18:13:29.864Z,95543
2018-03-26T18:16:02.234Z,95538
2018-03-26T18:18:31.794Z,95549
2018-03-26T18:21:02.127Z,95552
2018-03-26T18:23:33.742Z,95556
2018-03-26T18:26:03.062Z,95555
2018-03-26T18:28:35.192Z,95561
2018-03-26T18:31:06.459Z,95558
2018-03-26T18:33:35.688Z,95564
2018-03-26T18:36:07.401Z,95567
2018-03-26T18:38:37.027Z,95562
2018-03-26T18:41:07.629Z,95563
2018-03-26T18:43:37.327Z,95570
2018-03-26T18:46:06.382Z,95563
2018-03-26T18:48:36.168Z,95575
2018-03-26T18:51:05.191Z,95565
2018-03-26T18:53:34.259Z,95577
2018-03-26T18:56:03.268Z,95576
2018-03-26T18:58:32.323Z,95581
2018-03-26T19:01:01.355Z,95574
2018-03-26T19:03:31.165Z,95578
2018-03-26T19:06:00.955Z,95581
2018-03-26T19:08:30.022Z,95590
2018-03-26T19:10:59.064Z,95580
2018-03-26T19:13:28.896Z,95585
2018-03-26T19:15:57.974Z,95591
2018-03-26T19:18:27.772Z,95596
2018-03-26T19:20:56.790Z,95591
2018-03-26T19:23:25.915Z,95592
2018-03-26T19:25:54.939Z,95602
2018-03-26T19:28:23.958Z,95599
2018-03-26T19:30:52.999Z,95603
2018-03-26T19:33:22.011Z,95598
2018-03-26T19:35:51.060Z,95606
2018-03-26T19:38:20.083Z,95608
2018-03-26T19:40:50.224Z,95605
2018-03-26T19:43:19.262Z,95614
2018-03-26T19:45:49.974Z,95606
2018-03-26T19:48:19.930Z,95607
2018-03-26T19:50:49.075Z,95605
2018-03-26T19:53:19.015Z,95610
2018-03-26T19:55:48.136Z,95610
2018-03-26T19:58:18.236Z,95603
2018-03-26T20:00:47.347Z,95607
2018-03-26T20:03:17.021Z,95608
2018-03-26T20:05:46.298Z,95611
2018-03-26T20:08:15.318Z,95618
2018-03-26T20:10:44.604Z,95633
2018-03-26T20:13:14.024Z,95621
2018-03-26T20:15:43.266Z,95625
2018-03-26T20:18:12.741Z,95630
2018-03-26T20:20:41.896Z,95631
2018-03-26T20:23:11.744Z,95630
2018-03-26T20:25:40.913Z,95624
2018-03-26T20:28:10.727Z,95626
2018-03-26T20:30:40.525Z,95631
2018-03-26T20:33:11.041Z,95626
2018-03-26T20:35:41.595Z,95629
2018-03-26T20:38:10.825Z,95621
2018-03-26T20:40:39.845Z,95626
2018-03-26T20:43:09.454Z,95622
2018-03-26T20:45:39.562Z,95623
2018-03-26T20:48:08.602Z,95620
2018-03-26T20:50:37.640Z,95623
2018-03-26T20:53:06.889Z,95623
2018-03-26T20:55:35.928Z,95618
2018-03-26T20:58:05.030Z,95625
2018-03-26T21:00:34.793Z,95487
2018-03-26T21:03:04.195Z,95610
2018-03-26T21:05:33.207Z,95612
2018-03-26T21:08:02.274Z,95618
2018-03-26T21:10:32.063Z,95621
2018-03-26T21:13:01.100Z,95621
2018-03-26T21:15:30.183Z,95624
2018-03-26T21:17:59.312Z,95615
2018-03-26T21:20:28.320Z,95617
2018-03-26T21:22:57.390Z,95619
2018-03-26T21:25:26.628Z,95615
2018-03-26T21:27:55.678Z,95617
2018-03-26T21:30:24.733Z,95614
2018-03-26T21:32:54.557Z,95513
2018-03-26T21:35:23.575Z,95606
2018-03-26T21:37:52.615Z,95605
2018-03-26T21:40:21.849Z,95605
2018-03-26T21:42:50.871Z,95608
2018-03-26T21:45:19.896Z,95604
2018-03-26T21:47:48.985Z,95592
2018-03-26T21:50:18.007Z,95604
2018-03-26T21:52:47.789Z,95603
2018-03-26T21:55:16.834Z,95610
2018-03-26T21:57:45.851Z,95607
2018-03-26T22:00:20.724Z,95612
2018-03-26T22:02:49.750Z,95614
2018-03-26T22:05:18.838Z,95616
2018-03-26T22:07:47.863Z,95607
2018-03-26T22:10:16.880Z,95606
2018-03-26T22:12:45.967Z,95611
2018-03-26T22:15:15.005Z,95602
2018-03-26T22:17:44.023Z,95623
2018-03-26T22:20:13.137Z,95612
2018-03-26T22:22:42.147Z,95612
2018-03-26T22:25:11.154Z,95617
2018-03-26T22:27:41.035Z,95624
2018-03-26T22:30:10.087Z,95623
2018-03-26T22:32:39.135Z,95614
2018-03-26T22:35:08.486Z,95605
2018-03-26T22:37:37.593Z,95608
2018-03-26T22:40:06.651Z,95605
2018-03-26T22:42:35.773Z,95602
2018-03-26T22:45:04.840Z,95607
2018-03-26T22:47:33.938Z,95606
2018-03-26T22:50:02.988Z,95604
2018-03-26T22:52:32.030Z,95604
2018-03-26T22:55:01.051Z,95610
2018-03-26T22:57:30.161Z,95609
2018-03-26T22:59:59.220Z,95606
2018-03-26T23:02:28.334Z,95602
2018-03-26T23:04:57.359Z,95604
2018-03-26T23:07:26.611Z,95602
2018-03-26T23:09:56.370Z,95600
2018-03-26T23:12:25.415Z,95608
2018-03-26T23:14:54.537Z,95605
2018-03-26T23:17:23.643Z,95606
2018-03-26T23:19:52.718Z,95605
2018-03-26T23:22:39.839Z,95606
2018-03-26T23:25:08.850Z,95606
2018-03-26T23:27:37.931Z,95602
2018-03-26T23:30:07.026Z,95605
2018-03-26T23:32:36.041Z,95605
2018-03-26T23:35:05.094Z,95607
2018-03-26T23:37:34.102Z,95606
2018-03-26T23:40:03.178Z,95598
2018-03-26T23:42:32.213Z,95603
2018-03-26T23:45:01.312Z,95601
2018-03-26T23:47:31.134Z,95607
2018-03-26T23:50:01.023Z,95605
2018-03-26T23:52:30.148Z,95602
2018-03-26T23:54:59.197Z,95596
2018-03-26T23:57:28.296Z,95605
2018-03-26T23:59:57.369Z,95591
